createdAt,value
2022-08-01T00:00:46.140Z,2.75
2022-08-01T00:03:12.814Z,2.80
2022-08-01T00:05:39.610Z,2.57
2022-08-01T00:08:06.326Z,2.43
2022-08-01T00:10:33.105Z,2.62
2022-08-01T00:13:02.942Z,2.59
2022-08-01T00:15:29.826Z,2.44
2022-08-01T00:17:56.438Z,2.57
2022-08-01T00:20:23.034Z,2.54
2022-08-01T00:22:49.923Z,2.53
2022-08-01T00:25:17.477Z,2.53
2022-08-01T00:27:45.178Z,2.47
2022-08-01T00:30:15.069Z,2.47
2022-08-01T00:32:42.996Z,2.41
2022-08-01T00:35:09.859Z,2.60
2022-08-01T00:37:38.828Z,2.54
2022-08-01T00:40:05.305Z,2.59
2022-08-01T00:42:32.915Z,2.63
2022-08-01T00:44:59.665Z,2.51
2022-08-01T00:47:26.375Z,2.34
2022-08-01T00:49:53.434Z,2.17
2022-08-01T00:52:22.508Z,2.25
2022-08-01T00:54:48.961Z,2.57
2022-08-01T00:58:02.343Z,2.63
2022-08-01T01:00:05.511Z,2.63
2022-08-01T01:02:32.404Z,2.75
2022-08-01T01:04:59.266Z,2.41
2022-08-01T01:07:25.934Z,2.30
2022-08-01T01:09:55.008Z,2.25
2022-08-01T01:12:23.254Z,2.20
2022-08-01T01:14:50.727Z,2.49
2022-08-01T01:17:17.285Z,2.43
2022-08-01T01:20:01.405Z,2.37
2022-08-01T01:22:28.316Z,2.40
2022-08-01T01:24:57.642Z,2.54
2022-08-01T01:27:25.312Z,2.52
2022-08-01T01:29:59.355Z,2.46
2022-08-01T01:32:28.775Z,2.67
2022-08-01T01:34:58.009Z,2.53
2022-08-01T01:37:25.453Z,2.69
2022-08-01T01:39:54.344Z,2.57
2022-08-01T01:42:23.622Z,2.68
2022-08-01T01:44:50.614Z,2.65
2022-08-01T01:47:17.191Z,2.64
2022-08-01T01:49:44.080Z,2.46
2022-08-01T01:52:18.137Z,2.42
2022-08-01T01:54:44.721Z,2.46
2022-08-01T01:57:11.318Z,2.40
2022-08-01T01:59:38.005Z,2.10
2022-08-01T02:02:08.828Z,2.30
2022-08-01T02:04:38.020Z,2.26
2022-08-01T02:07:04.685Z,2.69
2022-08-01T02:09:32.527Z,2.51
2022-08-01T02:12:07.464Z,2.42
2022-08-01T02:14:36.084Z,2.55
2022-08-01T02:17:02.701Z,2.25
2022-08-01T02:19:30.599Z,2.34
2022-08-01T02:21:57.295Z,2.38
2022-08-01T02:24:23.914Z,2.13
2022-08-01T02:26:57.362Z,2.16
2022-08-01T02:29:24.867Z,2.20
2022-08-01T02:31:51.356Z,2.09
2022-08-01T02:34:18.121Z,2.43
2022-08-01T02:36:48.134Z,2.26
2022-08-01T02:39:14.826Z,2.35
2022-08-01T02:41:41.376Z,2.43
2022-08-01T02:44:08.380Z,2.50
2022-08-01T02:46:35.287Z,2.42
2022-08-01T02:49:04.088Z,2.24
2022-08-01T02:51:33.153Z,2.48
2022-08-01T02:53:59.795Z,2.25
2022-08-01T02:56:26.668Z,2.49
2022-08-01T02:58:55.659Z,2.35
2022-08-01T03:01:23.198Z,2.37
2022-08-01T03:03:53.712Z,2.26
2022-08-01T03:06:21.125Z,2.34
2022-08-01T03:08:48.156Z,2.55
2022-08-01T03:11:17.214Z,2.58
2022-08-01T03:13:44.038Z,2.50
2022-08-01T03:16:10.769Z,2.53
2022-08-01T03:18:37.663Z,2.23
2022-08-01T03:21:05.915Z,2.44
2022-08-01T03:23:38.245Z,2.61
2022-08-01T03:26:05.304Z,2.28
2022-08-01T03:28:31.948Z,2.47
2022-08-01T03:30:58.867Z,2.52
2022-08-01T03:33:26.191Z,2.53
2022-08-01T03:35:52.772Z,2.46
2022-08-01T03:38:19.551Z,2.26
2022-08-01T03:40:46.928Z,2.52
2022-08-01T03:43:15.997Z,2.35
2022-08-01T03:45:42.782Z,2.43
2022-08-01T03:48:09.396Z,2.45
2022-08-01T03:50:36.201Z,2.48
2022-08-01T03:53:03.038Z,2.24
2022-08-01T03:55:30.267Z,2.27
2022-08-01T03:57:56.955Z,2.28
2022-08-01T04:00:23.828Z,2.64
2022-08-01T04:02:50.519Z,2.36
2022-08-01T04:05:17.076Z,2.62
2022-08-01T04:07:43.810Z,2.68
2022-08-01T04:10:12.536Z,2.56
2022-08-01T04:12:44.669Z,2.42
2022-08-01T04:15:11.511Z,2.39
2022-08-01T04:17:38.379Z,2.57
2022-08-01T04:20:04.954Z,2.48
2022-08-01T04:22:31.585Z,2.38
2022-08-01T04:24:58.399Z,2.34
2022-08-01T04:27:48.411Z,2.47
2022-08-01T04:30:11.781Z,2.42
2022-08-01T04:32:44.766Z,2.62
2022-08-01T04:35:57.709Z,2.43
2022-08-01T04:37:58.450Z,2.60
2022-08-01T04:40:25.008Z,2.67
2022-08-01T04:42:51.554Z,2.77
2022-08-01T04:45:19.107Z,2.68
2022-08-01T04:47:48.281Z,2.47
2022-08-01T04:50:14.977Z,2.51
2022-08-01T04:52:41.730Z,2.60
2022-08-01T04:55:08.353Z,2.40
2022-08-01T04:57:34.935Z,2.64
2022-08-01T05:00:01.567Z,2.59
2022-08-01T05:02:28.183Z,2.73
2022-08-01T05:04:55.038Z,2.63
2022-08-01T05:07:22.344Z,2.71
2022-08-01T05:09:48.984Z,2.51
2022-08-01T05:12:15.813Z,2.44
2022-08-01T05:14:42.464Z,2.47
2022-08-01T05:17:09.785Z,2.47
2022-08-01T05:19:36.497Z,2.54
2022-08-01T05:22:03.273Z,2.71
2022-08-01T05:24:30.922Z,2.55
2022-08-01T05:27:01.123Z,2.64
2022-08-01T05:29:30.219Z,2.51
2022-08-01T05:31:57.126Z,2.46
2022-08-01T05:34:23.748Z,2.51
2022-08-01T05:36:55.284Z,2.46
2022-08-01T05:39:24.078Z,2.55
2022-08-01T05:41:50.753Z,2.53
2022-08-01T05:44:17.307Z,2.60
2022-08-01T05:46:44.446Z,2.39
2022-08-01T05:49:11.417Z,2.21
2022-08-01T05:51:38.110Z,2.29
2022-08-01T05:54:07.078Z,2.46
2022-08-01T05:56:35.280Z,2.31
2022-08-01T05:59:02.130Z,2.35
2022-08-01T06:01:30.976Z,2.36
2022-08-01T06:04:00.430Z,2.43
2022-08-01T06:06:27.269Z,2.59
2022-08-01T06:08:57.228Z,2.44
2022-08-01T06:11:23.903Z,2.36
2022-08-01T06:13:50.808Z,2.34
2022-08-01T06:16:17.664Z,2.19
2022-08-01T06:18:56.297Z,2.15
2022-08-01T06:21:23.523Z,2.46
2022-08-01T06:23:50.145Z,2.08
2022-08-01T06:26:16.784Z,2.33
2022-08-01T06:28:43.719Z,2.49
2022-08-01T06:31:10.576Z,2.24
2022-08-01T06:33:38.008Z,2.28
2022-08-01T06:36:04.826Z,2.38
2022-08-01T06:38:31.721Z,2.31
2022-08-01T06:40:58.676Z,2.43
2022-08-01T06:43:26.083Z,2.43
2022-08-01T06:45:52.755Z,2.30
2022-08-01T06:48:19.341Z,2.52
2022-08-01T06:50:48.590Z,2.41
2022-08-01T06:53:15.441Z,2.47
2022-08-01T06:55:42.458Z,2.59
2022-08-01T06:58:09.583Z,2.52
2022-08-01T07:00:36.229Z,2.60
2022-08-01T07:03:04.118Z,2.54
2022-08-01T07:05:30.973Z,2.65
2022-08-01T07:07:58.663Z,2.69
2022-08-01T07:10:25.314Z,2.61
2022-08-01T07:12:52.124Z,2.56
2022-08-01T07:15:19.011Z,2.58
2022-08-01T07:17:45.524Z,2.55
2022-08-01T07:20:16.583Z,2.62
2022-08-01T07:22:43.329Z,2.63
2022-08-01T07:25:10.868Z,2.54
2022-08-01T07:27:37.744Z,2.53
2022-08-01T07:30:04.305Z,2.60
2022-08-01T07:32:38.518Z,2.61
2022-08-01T07:35:05.415Z,2.62
2022-08-01T07:37:48.339Z,2.68
2022-08-01T07:40:16.223Z,2.63
2022-08-01T07:42:43.066Z,2.81
2022-08-01T07:45:09.877Z,2.70
2022-08-01T07:47:36.631Z,2.65
2022-08-01T07:50:03.477Z,2.59
2022-08-01T07:52:30.539Z,2.71
2022-08-01T07:54:57.021Z,2.64
2022-08-01T07:57:23.677Z,3.10
2022-08-01T07:59:51.195Z,3.05
2022-08-01T08:02:18.242Z,2.76
2022-08-01T08:04:48.915Z,3.17
2022-08-01T08:07:16.240Z,3.03
2022-08-01T08:09:42.868Z,3.26
2022-08-01T08:12:10.700Z,2.96
2022-08-01T08:14:37.418Z,3.06
2022-08-01T08:17:03.947Z,2.86
2022-08-01T08:19:37.948Z,2.93
2022-08-01T08:22:06.736Z,3.26
2022-08-01T08:24:33.781Z,3.06
2022-08-01T08:27:12.412Z,2.93
2022-08-01T08:32:56.325Z,2.96
2022-08-01T08:35:53.452Z,2.96
2022-08-01T08:38:15.101Z,3.01
2022-08-01T08:43:38.621Z,3.16
2022-08-01T08:46:05.222Z,3.26
2022-08-01T08:48:33.426Z,3.21
2022-08-01T08:51:05.082Z,3.08
2022-08-01T08:56:26.045Z,3.33
2022-08-01T08:58:55.147Z,3.28
2022-08-01T09:01:23.033Z,3.10
2022-08-01T09:03:50.209Z,3.07
2022-08-01T09:06:16.767Z,3.25
2022-08-01T09:08:43.553Z,3.23
2022-08-01T09:11:13.880Z,3.26
2022-08-01T09:13:49.376Z,3.26
2022-08-01T09:16:15.973Z,3.04
2022-08-01T09:18:42.729Z,3.34
2022-08-01T09:21:12.139Z,3.08
2022-08-01T09:23:40.512Z,3.37
2022-08-01T09:26:24.038Z,3.04
2022-08-01T09:28:51.258Z,3.20
2022-08-01T09:31:17.828Z,2.98
2022-08-01T09:33:45.955Z,2.96
2022-08-01T09:36:14.502Z,3.21
2022-08-01T09:38:47.540Z,3.18
2022-08-01T09:41:17.957Z,2.97
2022-08-01T09:43:46.305Z,3.00
2022-08-01T09:46:16.989Z,2.82
2022-08-01T09:48:49.343Z,2.79
2022-08-01T09:51:58.410Z,3.19
2022-08-01T09:54:05.054Z,2.79
2022-08-01T09:56:32.017Z,2.94
2022-08-01T09:59:00.325Z,2.75
2022-08-01T10:01:36.897Z,2.86
2022-08-01T10:04:10.427Z,3.13
2022-08-01T10:06:38.126Z,2.87
2022-08-01T10:09:05.733Z,2.81
2022-08-01T10:11:36.130Z,2.69
2022-08-01T10:14:03.543Z,2.62
2022-08-01T10:16:30.457Z,2.90
2022-08-01T10:18:58.099Z,2.78
2022-08-01T10:21:57.344Z,2.69
2022-08-01T10:24:14.177Z,2.70
2022-08-01T10:26:41.608Z,2.61
2022-08-01T10:29:24.046Z,2.68
2022-08-01T10:31:57.361Z,2.79
2022-08-01T10:34:27.140Z,2.72
2022-08-01T10:36:56.114Z,2.58
2022-08-01T10:39:23.500Z,2.71
2022-08-01T10:41:50.737Z,2.46
2022-08-01T10:44:18.207Z,2.73
2022-08-01T10:46:45.992Z,2.82
2022-08-01T10:49:15.846Z,2.95
2022-08-01T10:51:51.588Z,2.85
2022-08-01T10:54:19.934Z,2.68
2022-08-01T10:56:46.769Z,2.87
2022-08-01T10:59:18.499Z,2.67
2022-08-01T11:02:05.070Z,2.34
2022-08-01T11:04:34.397Z,2.41
2022-08-01T11:07:01.191Z,2.25
2022-08-01T11:09:36.581Z,2.47
2022-08-01T11:12:13.096Z,2.45
2022-08-01T11:17:21.583Z,1.96
2022-08-01T11:19:48.808Z,2.29
2022-08-01T11:22:16.406Z,2.12
2022-08-01T11:24:43.459Z,1.82
2022-08-01T11:27:11.416Z,1.84
2022-08-01T11:29:38.999Z,1.74
2022-08-01T11:32:06.151Z,1.66
2022-08-01T11:34:35.967Z,1.78
2022-08-01T11:37:03.252Z,1.77
2022-08-01T11:39:36.765Z,2.02
2022-08-01T11:42:05.409Z,2.08
2022-08-01T11:44:32.349Z,1.89
2022-08-01T11:46:59.322Z,1.73
2022-08-01T11:49:26.529Z,1.25
2022-08-01T11:51:58.450Z,1.31
2022-08-01T11:54:35.461Z,1.38
2022-08-01T11:57:02.758Z,1.45
2022-08-01T11:59:41.034Z,1.32
2022-08-01T12:02:08.216Z,1.14
2022-08-01T12:04:35.132Z,1.24
2022-08-01T12:07:03.595Z,1.53
2022-08-01T12:09:30.610Z,1.30
2022-08-01T12:11:57.116Z,1.31
2022-08-01T12:14:23.667Z,1.30
2022-08-01T12:16:50.805Z,1.35
2022-08-01T12:19:17.829Z,1.51
2022-08-01T12:21:44.551Z,1.42
2022-08-01T12:24:18.677Z,1.38
2022-08-01T12:26:45.319Z,1.34
2022-08-01T12:29:11.842Z,1.23
2022-08-01T12:31:40.375Z,1.34
2022-08-01T12:34:07.296Z,1.39
2022-08-01T12:36:34.025Z,1.57
2022-08-01T12:39:00.881Z,1.33
2022-08-01T12:41:27.501Z,1.40
2022-08-01T12:44:01.451Z,1.30
2022-08-01T12:46:28.019Z,1.30
2022-08-01T12:48:54.559Z,1.38
2022-08-01T12:51:21.253Z,1.33
2022-08-01T12:53:47.845Z,1.31
2022-08-01T12:56:17.162Z,1.38
2022-08-01T12:58:46.335Z,1.30
2022-08-01T13:01:13.491Z,1.19
2022-08-01T13:03:40.569Z,1.25
2022-08-01T13:06:09.547Z,1.18
2022-08-01T13:08:43.522Z,1.00
2022-08-01T13:11:10.344Z,1.19
2022-08-01T13:13:37.983Z,1.16
2022-08-01T13:16:04.780Z,1.25
2022-08-01T13:18:33.942Z,1.33
2022-08-01T13:21:01.241Z,1.26
2022-08-01T13:24:01.556Z,1.26
2022-08-01T13:26:16.636Z,1.30
2022-08-01T13:28:43.305Z,1.12
2022-08-01T13:31:10.645Z,1.37
2022-08-01T13:33:37.261Z,1.34
2022-08-01T13:36:05.266Z,1.40
2022-08-01T13:38:32.781Z,1.42
2022-08-01T13:40:59.504Z,1.52
2022-08-01T13:43:29.465Z,1.37
2022-08-01T13:46:13.618Z,1.39
2022-08-01T13:48:50.175Z,1.50
2022-08-01T13:51:22.254Z,1.44
2022-08-01T13:53:52.796Z,1.21
2022-08-01T13:56:19.427Z,1.31
2022-08-01T13:58:46.082Z,1.41
2022-08-01T14:01:12.944Z,1.35
2022-08-01T14:03:39.817Z,1.50
2022-08-01T14:06:06.681Z,1.39
2022-08-01T14:08:40.688Z,1.52
2022-08-01T14:11:13.041Z,1.35
2022-08-01T14:13:46.888Z,1.55
2022-08-01T14:16:13.846Z,1.59
2022-08-01T14:18:41.998Z,1.31
2022-08-01T14:21:11.221Z,1.55
2022-08-01T14:23:38.128Z,1.31
2022-08-01T14:26:09.980Z,1.29
2022-08-01T14:28:46.430Z,1.42
2022-08-01T14:31:20.418Z,1.63
2022-08-01T14:33:47.075Z,1.16
2022-08-01T14:36:28.999Z,1.25
2022-08-01T14:39:00.384Z,1.33
2022-08-01T14:41:30.673Z,1.35
2022-08-01T14:43:58.008Z,1.46
2022-08-01T14:46:24.517Z,1.24
2022-08-01T14:48:51.142Z,1.31
2022-08-01T14:51:20.843Z,1.36
2022-08-01T14:53:51.077Z,1.49
2022-08-01T14:56:20.949Z,1.38
2022-08-01T14:58:47.479Z,1.27
2022-08-01T15:01:15.762Z,1.22
2022-08-01T15:03:42.559Z,1.42
2022-08-01T15:06:09.147Z,1.27
2022-08-01T15:08:37.237Z,1.29
2022-08-01T15:11:05.943Z,1.33
2022-08-01T15:13:32.568Z,1.47
2022-08-01T15:15:59.977Z,1.28
2022-08-01T15:18:27.425Z,1.23
2022-08-01T15:20:54.202Z,1.27
2022-08-01T15:23:21.038Z,1.37
2022-08-01T15:25:47.933Z,1.37
2022-08-01T15:28:14.918Z,1.48
2022-08-01T15:30:42.258Z,1.36
2022-08-01T15:33:09.203Z,1.52
2022-08-01T15:35:36.778Z,1.42
2022-08-01T15:38:03.821Z,1.37
2022-08-01T15:40:30.684Z,1.29
2022-08-01T15:42:57.463Z,1.37
2022-08-01T15:48:10.456Z,1.39
2022-08-01T15:50:39.547Z,1.46
2022-08-01T15:53:06.421Z,1.42
2022-08-01T15:55:33.358Z,1.24
2022-08-01T15:58:00.654Z,1.37
2022-08-01T16:00:32.952Z,1.40
2022-08-01T16:03:05.694Z,1.50
2022-08-01T16:05:32.274Z,1.58
2022-08-01T16:08:01.710Z,1.48
2022-08-01T16:10:28.981Z,1.49
2022-08-01T16:12:56.810Z,1.51
2022-08-01T16:15:31.337Z,1.51
2022-08-01T16:18:03.762Z,1.73
2022-08-01T16:20:30.608Z,1.57
2022-08-01T16:22:57.323Z,1.42
2022-08-01T16:25:24.219Z,1.55
2022-08-01T16:27:51.125Z,1.39
2022-08-01T16:30:18.620Z,1.62
2022-08-01T16:32:54.424Z,1.69
2022-08-01T16:35:36.269Z,1.33
2022-08-01T16:38:05.372Z,1.57
2022-08-01T16:40:40.052Z,1.57
2022-08-01T16:43:14.645Z,1.64
2022-08-01T16:45:42.722Z,1.72
2022-08-01T16:48:09.517Z,1.37
2022-08-01T16:50:38.977Z,1.54
2022-08-01T16:53:05.482Z,1.52
2022-08-01T16:55:49.904Z,1.46
2022-08-01T16:58:17.553Z,1.56
2022-08-01T17:00:44.117Z,1.49
2022-08-01T17:03:46.750Z,1.60
2022-08-01T17:06:16.823Z,1.50
2022-08-01T17:08:46.893Z,1.58
2022-08-01T17:11:13.739Z,1.67
2022-08-01T17:13:43.622Z,1.49
2022-08-01T17:16:12.628Z,2.49
2022-08-01T17:18:39.352Z,1.45
2022-08-01T17:21:06.271Z,1.73
2022-08-01T17:23:33.812Z,1.72
2022-08-01T17:26:01.390Z,1.60
2022-08-01T17:28:27.920Z,1.66
2022-08-01T17:30:54.550Z,1.97
2022-08-01T17:33:22.198Z,1.65
2022-08-01T17:35:50.213Z,1.73
2022-08-01T17:38:17.053Z,1.80
2022-08-01T17:40:45.784Z,1.63
2022-08-01T17:43:13.830Z,1.81
2022-08-01T17:45:50.316Z,1.57
2022-08-01T17:48:18.126Z,1.57
2022-08-01T17:50:44.799Z,1.75
2022-08-01T17:53:11.679Z,1.81
2022-08-01T17:55:55.532Z,1.82
2022-08-01T17:58:49.198Z,1.65
2022-08-01T18:01:17.405Z,1.74
2022-08-01T18:03:47.878Z,1.81
2022-08-01T18:06:15.715Z,1.82
2022-08-01T18:08:42.817Z,1.81
2022-08-01T18:11:09.695Z,1.81
2022-08-01T18:13:36.349Z,1.92
2022-08-01T18:18:43.663Z,1.86
2022-08-01T18:21:11.322Z,1.85
2022-08-01T18:23:38.198Z,2.19
2022-08-01T18:26:05.563Z,1.94
2022-08-01T18:28:37.987Z,2.39
2022-08-01T18:31:07.209Z,2.34
2022-08-01T18:33:33.922Z,2.55
2022-08-01T18:36:03.633Z,2.16
2022-08-01T18:38:33.383Z,2.33
2022-08-01T18:41:02.681Z,2.33
2022-08-01T18:43:29.655Z,2.16
2022-08-01T18:45:57.542Z,2.17
2022-08-01T18:48:24.366Z,2.28
2022-08-01T18:50:50.939Z,2.22
2022-08-01T18:53:17.599Z,2.33
2022-08-01T18:55:44.414Z,2.61
2022-08-01T18:58:11.043Z,2.27
2022-08-01T19:00:37.965Z,2.41
2022-08-01T19:03:04.518Z,2.76
2022-08-01T19:05:31.366Z,2.68
2022-08-01T19:08:06.120Z,2.75
2022-08-01T19:10:33.957Z,2.83
2022-08-01T19:13:00.524Z,2.65
2022-08-01T19:15:28.324Z,2.57
2022-08-01T19:17:56.778Z,2.99
2022-08-01T19:20:23.406Z,2.66
2022-08-01T19:22:58.322Z,2.58
2022-08-01T19:25:28.879Z,2.64
2022-08-01T19:27:55.918Z,2.68
2022-08-01T19:30:25.860Z,2.98
2022-08-01T19:32:52.515Z,2.78
2022-08-01T19:35:20.027Z,2.92
2022-08-01T19:37:46.641Z,2.86
2022-08-01T19:40:26.716Z,2.67
2022-08-01T19:42:55.482Z,2.90
2022-08-01T19:45:22.062Z,2.67
2022-08-01T19:47:56.178Z,2.60
2022-08-01T19:50:24.124Z,2.76
2022-08-01T19:52:51.012Z,3.01
2022-08-01T19:55:17.641Z,2.67
2022-08-01T19:57:45.530Z,2.96
2022-08-01T20:00:24.090Z,2.91
2022-08-01T20:02:55.001Z,2.87
2022-08-01T20:05:21.575Z,2.93
2022-08-01T20:07:48.179Z,2.97
2022-08-01T20:10:14.961Z,3.18
2022-08-01T20:12:41.869Z,3.06
2022-08-01T20:15:08.828Z,3.37
2022-08-01T20:17:36.124Z,2.92
2022-08-01T20:20:02.753Z,2.89
2022-08-01T20:22:29.737Z,2.79
2022-08-01T20:24:56.703Z,2.88
2022-08-01T20:27:23.487Z,3.10
2022-08-01T20:29:51.359Z,3.60
2022-08-01T20:32:18.286Z,3.21
2022-08-01T20:34:45.155Z,3.26
2022-08-01T20:37:12.808Z,3.09
2022-08-01T20:39:40.458Z,2.94
2022-08-01T20:42:09.691Z,3.00
2022-08-01T20:44:36.308Z,3.17
2022-08-01T20:47:04.882Z,2.85
2022-08-01T20:49:31.510Z,2.81
2022-08-01T20:51:58.283Z,2.71
2022-08-01T20:57:06.510Z,2.71
2022-08-01T20:59:39.449Z,2.94
2022-08-01T21:02:21.534Z,2.76
2022-08-01T21:04:48.156Z,2.82
2022-08-01T21:07:14.939Z,2.79
2022-08-01T21:12:51.368Z,2.95
2022-08-01T21:15:18.859Z,2.87
2022-08-01T21:17:46.471Z,3.14
2022-08-01T21:22:53.721Z,2.97
2022-08-01T21:25:21.359Z,2.72
2022-08-01T21:27:48.887Z,2.85
2022-08-01T21:30:15.900Z,2.85
2022-08-01T21:32:42.564Z,3.06
2022-08-01T21:35:16.218Z,2.95
2022-08-01T21:37:44.320Z,2.96
2022-08-01T21:40:11.121Z,2.75
2022-08-01T21:42:38.007Z,3.11
2022-08-01T21:45:04.938Z,3.07
2022-08-01T21:47:31.627Z,3.40
2022-08-01T21:49:58.476Z,3.37
2022-08-01T21:52:25.153Z,3.54
2022-08-01T21:54:52.720Z,2.97
2022-08-01T21:57:19.700Z,2.86
2022-08-01T21:59:46.357Z,2.98
2022-08-01T22:02:13.835Z,3.05
2022-08-01T22:04:41.105Z,3.07
2022-08-01T22:07:11.036Z,3.00
2022-08-01T22:09:37.776Z,2.87
2022-08-01T22:12:05.147Z,3.27
2022-08-01T22:14:31.801Z,3.13
2022-08-01T22:16:58.481Z,2.85
2022-08-01T22:19:41.988Z,3.04
2022-08-01T22:22:45.094Z,2.97
2022-08-01T22:24:58.226Z,3.03
2022-08-01T22:28:02.803Z,3.12
2022-08-01T22:30:12.068Z,3.08
2022-08-01T22:32:38.653Z,2.95
2022-08-01T22:35:05.754Z,3.09
2022-08-01T22:37:56.214Z,3.05
2022-08-01T22:40:19.505Z,2.81
2022-08-01T22:42:46.384Z,2.91
2022-08-01T22:45:13.085Z,3.01
2022-08-01T22:47:41.765Z,3.19
2022-08-01T22:50:09.134Z,3.45
2022-08-01T22:52:35.803Z,3.34
2022-08-01T22:55:02.710Z,3.92
2022-08-01T22:57:29.386Z,3.52
2022-08-01T22:59:56.084Z,3.82
2022-08-01T23:02:22.812Z,3.90
2022-08-01T23:04:49.381Z,3.99
2022-08-01T23:07:16.915Z,3.96
2022-08-01T23:09:54.214Z,3.89
2022-08-01T23:12:21.798Z,3.57
2022-08-01T23:14:48.838Z,3.37
2022-08-01T23:17:26.726Z,3.84
2022-08-01T23:19:55.317Z,3.46
2022-08-01T23:22:22.275Z,3.39
2022-08-01T23:25:04.736Z,3.37
2022-08-01T23:27:51.860Z,3.24
2022-08-01T23:30:22.700Z,3.28
2022-08-01T23:32:49.383Z,3.08
2022-08-01T23:35:17.063Z,3.15
2022-08-01T23:37:43.652Z,2.97
2022-08-01T23:40:10.663Z,3.29
2022-08-01T23:42:37.333Z,3.28
2022-08-01T23:45:03.946Z,3.24
2022-08-01T23:47:32.777Z,3.23
2022-08-01T23:50:00.182Z,3.16
2022-08-01T23:52:28.007Z,3.27
2022-08-01T23:54:59.059Z,3.37
2022-08-01T23:57:26.374Z,3.50
2022-08-01T23:59:54.036Z,3.42
